CheckWX is a tool to help pilots better visualize weather data.  It is not intended as a substitute for an official pre-flight weather briefing.

23:23:44 UTC

KPTT METAR
Pratt Regional Airport
Pratt, Kansas, USA
Current

29 mins ago

KPTT 162255Z AUTO 17010KT 10SM CLR 17/M02 A2991 RMK AO2 T01661020
Observed
Nov-16 @ 22:55 UTC
Wind
  • 170° at 10 KTS
Visibility
10 SM
Flight Rules
VFR
Cloud Levels
  • Clear skies
Temperature
17°C / 63°F
Dewpoint
-2°C / 28°F
Humidity
27%
Altimeter
29.91" Hg
Pressure
1012.92 hPa
Previous

49 mins ago

KPTT 162235Z AUTO 17011KT 10SM CLR 17/M01 A2991 RMK AO2 T01671015
Observed
Nov-16 @ 22:35 UTC
Wind
  • 170° at 11 KTS
Visibility
10 SM
Flight Rules
VFR
Cloud Levels
  • Clear skies
Temperature
17°C / 63°F
Dewpoint
-2°C / 28°F
Humidity
27%
Altimeter
29.91" Hg
Pressure
1012.92 hPa
Previous

1 hour ago

KPTT 162215Z AUTO 19018G25KT 10SM CLR 18/M01 A2992 RMK AO2 T01761011
Observed
Nov-16 @ 22:15 UTC
Wind
  • 190° at 18 KTS
  • Gusting to 25 KTS
Visibility
10 SM
Flight Rules
VFR
Cloud Levels
  • Clear skies
Temperature
18°C / 64°F
Dewpoint
-1°C / 30°F
Humidity
28%
Altimeter
29.92" Hg
Pressure
1013.22 hPa